createdAt,value
2019-02-22T08:59:27.666Z,10.20
2019-02-22T09:01:56.379Z,10.90
2019-02-22T09:04:25.356Z,10.80
2019-02-22T09:06:54.058Z,15.40
2019-02-22T09:09:22.814Z,11.23
2019-02-22T09:11:51.625Z,11.33
2019-02-22T09:14:20.314Z,16.47
2019-02-22T09:16:55.839Z,14.03
2019-02-22T09:19:31.726Z,14.07
2019-02-22T09:22:00.499Z,15.67
2019-02-22T09:24:29.470Z,13.17
2019-02-22T09:26:58.152Z,12.83
2019-02-22T09:29:26.754Z,14.57
2019-02-22T09:31:55.591Z,15.00
2019-02-22T09:34:25.913Z,13.37
2019-02-22T09:36:54.577Z,12.10
2019-02-22T09:39:23.352Z,21.00
2019-02-22T09:41:52.220Z,14.40
2019-02-22T09:44:20.996Z,16.30
2019-02-22T09:46:49.766Z,15.03
2019-02-22T09:49:18.572Z,11.30
2019-02-22T09:51:47.366Z,10.27
2019-02-22T09:54:16.214Z,12.07
2019-02-22T09:56:44.984Z,14.80
2019-02-22T09:59:13.612Z,17.10
2019-02-22T10:01:42.419Z,13.47
2019-02-22T10:04:11.170Z,16.57
2019-02-22T10:06:40.009Z,9.10
2019-02-22T10:09:08.881Z,12.60
2019-02-22T10:11:37.550Z,14.00
2019-02-22T10:14:07.068Z,15.00
2019-02-22T10:16:36.006Z,13.43
2019-02-22T10:19:04.745Z,14.70
2019-02-22T10:21:33.547Z,9.67
2019-02-22T10:24:02.292Z,14.30
2019-02-22T10:26:31.069Z,17.80
2019-02-22T10:28:59.840Z,11.83
2019-02-22T10:31:28.533Z,18.37
2019-02-22T10:33:57.278Z,12.20
2019-02-22T10:36:25.954Z,12.47
2019-02-22T10:38:54.690Z,11.23
2019-02-22T10:41:24.702Z,10.63
2019-02-22T10:43:53.391Z,12.07
2019-02-22T10:46:22.582Z,10.57
2019-02-22T10:48:51.355Z,10.00
2019-02-22T10:51:20.332Z,10.03
2019-02-22T10:53:49.177Z,18.13
2019-02-22T10:56:17.912Z,20.53
2019-02-22T10:58:48.180Z,11.00
2019-02-22T11:01:16.893Z,11.50
2019-02-22T11:03:45.557Z,11.70
2019-02-22T11:06:14.225Z,11.53
2019-02-22T11:08:42.889Z,10.20
2019-02-22T11:11:11.698Z,13.20
2019-02-22T11:13:40.534Z,20.00
2019-02-22T11:16:09.225Z,15.73
2019-02-22T11:18:39.464Z,17.93
2019-02-22T11:21:08.685Z,12.13
2019-02-22T11:23:37.562Z,10.80
2019-02-22T11:26:06.403Z,11.43
2019-02-22T11:28:35.182Z,15.27
2019-02-22T11:31:06.271Z,9.60
2019-02-22T11:33:35.102Z,10.93
2019-02-22T11:36:03.945Z,8.60
2019-02-22T11:38:32.830Z,13.10
2019-02-22T11:41:01.586Z,17.53
2019-02-22T11:43:30.555Z,16.23
2019-02-22T11:45:59.329Z,14.23
2019-02-22T11:48:28.027Z,11.93
2019-02-22T11:50:56.844Z,11.40
2019-02-22T11:53:25.688Z,19.73
2019-02-22T11:55:54.563Z,17.50
2019-02-22T11:58:23.529Z,12.70
2019-02-22T12:00:52.412Z,15.97
2019-02-22T12:03:24.645Z,13.27
2019-02-22T12:05:51.511Z,14.43
2019-02-22T12:08:20.413Z,13.10
2019-02-22T12:10:49.376Z,9.60
2019-02-22T12:13:18.076Z,9.10
2019-02-22T12:15:46.883Z,10.80
2019-02-22T12:18:15.718Z,12.20
2019-02-22T12:20:44.455Z,21.03
2019-02-22T12:23:16.298Z,10.70
2019-02-22T12:25:45.017Z,11.53
2019-02-22T12:28:13.798Z,14.93
2019-02-22T12:30:43.427Z,10.07
2019-02-22T12:33:12.165Z,19.80
2019-02-22T12:35:41.148Z,19.20
2019-02-22T12:38:09.891Z,14.70
2019-02-22T12:40:38.735Z,15.57
2019-02-22T12:43:07.536Z,10.53
2019-02-22T12:45:40.456Z,13.50
2019-02-22T12:48:09.386Z,8.03
2019-02-22T12:50:38.005Z,11.43
2019-02-22T12:53:06.864Z,17.73
2019-02-22T12:55:35.716Z,16.23
2019-02-22T12:58:04.522Z,9.20
2019-02-22T13:00:34.859Z,15.47
2019-02-22T13:03:03.701Z,29.43
2019-02-22T13:05:32.388Z,12.73
2019-02-22T13:08:04.317Z,15.37
2019-02-22T13:10:33.133Z,10.70
2019-02-22T13:13:01.812Z,9.77
2019-02-22T13:15:30.775Z,13.57
2019-02-22T13:17:59.390Z,15.43
2019-02-22T13:20:28.250Z,9.70
2019-02-22T13:22:57.092Z,7.63
2019-02-22T13:25:25.786Z,13.30
2019-02-22T13:27:54.392Z,9.93
2019-02-22T13:30:23.341Z,8.67
2019-02-22T13:32:52.076Z,9.00
2019-02-22T13:35:20.824Z,5.27
2019-02-22T13:37:49.496Z,9.83
2019-02-22T13:40:18.730Z,9.33
2019-02-22T13:42:47.371Z,6.27
2019-02-22T13:45:25.942Z,12.00
2019-02-22T13:47:46.726Z,8.53
2019-02-22T13:50:19.335Z,5.40
2019-02-22T13:52:48.128Z,7.20
2019-02-22T13:55:16.977Z,6.97
2019-02-22T13:57:45.739Z,7.60
2019-02-22T14:00:18.864Z,7.03
2019-02-22T14:02:47.581Z,8.00
2019-02-22T14:05:16.435Z,6.57
2019-02-22T14:07:57.769Z,5.80
2019-02-22T14:10:26.913Z,8.17
2019-02-22T14:12:55.729Z,5.73
2019-02-22T14:15:24.575Z,6.97
2019-02-22T14:17:53.549Z,8.30
2019-02-22T14:20:22.272Z,6.17
2019-02-22T14:22:51.619Z,8.00
2019-02-22T14:25:20.294Z,7.90
2019-02-22T14:27:48.968Z,7.33
2019-02-22T14:30:18.327Z,6.03
2019-02-22T14:32:51.637Z,6.60
2019-02-22T14:35:20.431Z,5.33
2019-02-22T14:37:49.280Z,7.63
2019-02-22T14:40:18.577Z,6.73
2019-02-22T14:42:47.207Z,5.40
2019-02-22T14:45:16.024Z,5.57
2019-02-22T14:47:44.736Z,6.30
2019-02-22T14:50:15.421Z,4.40
2019-02-22T14:52:44.109Z,7.80
2019-02-22T14:55:12.898Z,4.43
2019-02-22T14:57:41.653Z,7.30
2019-02-22T15:00:16.507Z,6.63
2019-02-22T15:02:45.220Z,6.83
2019-02-22T15:05:14.923Z,6.93
2019-02-22T15:07:43.651Z,6.43
2019-02-22T15:10:12.670Z,4.73
2019-02-22T15:12:41.448Z,4.30
2019-02-22T15:15:15.182Z,4.20
2019-02-22T15:17:45.575Z,4.93
2019-02-22T15:20:14.402Z,8.23
2019-02-22T15:22:43.186Z,13.80
2019-02-22T15:25:13.775Z,6.87
2019-02-22T15:27:42.405Z,4.10
2019-02-22T15:30:13.980Z,6.90
2019-02-22T15:32:42.765Z,4.13
2019-02-22T15:35:16.080Z,5.10
2019-02-22T15:37:44.834Z,4.03
2019-02-22T15:40:14.563Z,4.17
2019-02-22T15:42:43.380Z,4.43
2019-02-22T15:45:14.313Z,7.10
2019-02-22T15:47:43.900Z,3.60
2019-02-22T15:50:14.359Z,8.40
2019-02-22T15:52:43.651Z,9.37
2019-02-22T15:55:14.331Z,5.20
2019-02-22T15:57:42.675Z,6.30
2019-02-22T16:00:26.548Z,6.33
2019-02-22T16:02:55.401Z,12.33
2019-02-22T16:05:25.718Z,5.20
2019-02-22T16:07:54.480Z,4.60
2019-02-22T16:10:23.220Z,18.80
2019-02-22T16:12:51.991Z,5.00
2019-02-22T16:15:20.852Z,9.27
2019-02-22T16:17:51.101Z,4.00
2019-02-22T16:20:19.860Z,10.70
2019-02-22T16:22:50.846Z,3.63
2019-02-22T16:25:20.107Z,8.13
2019-02-22T16:27:49.430Z,4.40
2019-02-22T16:30:20.234Z,12.20
2019-02-22T16:32:48.991Z,11.70
2019-02-22T16:35:17.735Z,4.97
2019-02-22T16:37:46.676Z,5.93
2019-02-22T16:40:15.419Z,4.00
2019-02-22T16:42:44.055Z,8.23
2019-02-22T16:45:13.797Z,5.10
2019-02-22T16:47:43.963Z,3.70
2019-02-22T16:50:14.200Z,3.30
2019-02-22T16:52:45.077Z,4.10
2019-02-22T16:55:15.410Z,4.70
2019-02-22T16:57:44.271Z,4.37
2019-02-22T17:00:15.039Z,5.70
2019-02-22T17:02:44.490Z,3.10
2019-02-22T17:05:15.758Z,5.00
2019-02-22T17:07:44.477Z,3.03
2019-02-22T17:10:14.382Z,4.40
2019-02-22T17:12:43.074Z,4.50
2019-02-22T17:15:13.447Z,3.10
2019-02-22T17:17:42.232Z,3.50
2019-02-22T17:20:16.377Z,5.00
2019-02-22T17:22:45.072Z,4.30
2019-02-22T17:25:22.913Z,5.33
2019-02-22T17:27:51.523Z,7.47
2019-02-22T17:30:23.441Z,2.97
2019-02-22T17:32:52.065Z,3.70
2019-02-22T17:35:20.856Z,3.03
2019-02-22T17:37:49.496Z,4.00
2019-02-22T17:40:23.290Z,5.17
2019-02-22T17:42:52.054Z,3.83
2019-02-22T17:45:20.792Z,4.83
2019-02-22T17:47:49.690Z,5.27
2019-02-22T17:50:18.425Z,3.33
2019-02-22T17:52:47.195Z,2.90
2019-02-22T17:55:15.864Z,4.07
2019-02-22T17:57:44.471Z,7.40
2019-02-22T18:00:16.875Z,4.20
2019-02-22T18:02:45.655Z,3.33
2019-02-22T18:05:14.649Z,5.57
2019-02-22T18:07:43.193Z,3.10
2019-02-22T18:10:12.469Z,3.47
2019-02-22T18:12:41.232Z,3.83
2019-02-22T18:15:12.802Z,3.57
2019-02-22T18:17:43.861Z,4.07
2019-02-22T18:20:12.713Z,3.07
2019-02-22T18:22:42.637Z,3.27
2019-02-22T18:25:11.375Z,3.30
2019-02-22T18:27:40.129Z,4.27
2019-02-22T18:30:17.769Z,3.30
2019-02-22T18:32:46.407Z,3.03
2019-02-22T18:35:15.199Z,3.90
2019-02-22T18:37:43.990Z,4.87
2019-02-22T18:40:17.988Z,3.20
2019-02-22T18:42:46.743Z,3.00
2019-02-22T18:45:15.530Z,2.90
2019-02-22T18:47:44.269Z,3.17
2019-02-22T18:50:13.022Z,3.43
2019-02-22T18:52:41.716Z,4.00
2019-02-22T18:55:10.894Z,3.33
2019-02-22T18:57:39.776Z,3.93
2019-02-22T19:00:11.612Z,4.37
2019-02-22T19:02:40.328Z,2.90
2019-02-22T19:05:09.976Z,3.40
2019-02-22T19:07:38.788Z,3.23
2019-02-22T19:10:10.688Z,3.90
2019-02-22T19:12:39.478Z,3.80
2019-02-22T19:15:13.139Z,2.60
2019-02-22T19:17:41.944Z,3.43
2019-02-22T19:20:18.558Z,5.93
2019-02-22T19:22:47.383Z,3.13
2019-02-22T19:25:16.044Z,2.83
2019-02-22T19:27:46.548Z,2.70
2019-02-22T19:30:17.563Z,2.40
2019-02-22T19:32:46.352Z,3.07
2019-02-22T19:35:15.082Z,4.07
2019-02-22T19:37:43.788Z,3.33
2019-02-22T19:40:18.295Z,3.73
